Alta, UT

3:46 PM MDT on September 18, 2014 (GMT -0600)
Sandy Bench | Change Station
CLOSE
Current Station
Personal Weather Station
Location: Sandy, UT
Elevation: 4930 ft
Nearby Weather Stations

Elev 4930 ft 40.57 °N, 111.83 °W | Updated 7 minutes ago

Clear
Clear
87.1 °F
Feels Like 84 °F
N
4.0
Wind Variable Wind from SSE
Gusts 11.0 mph

Today
High -- | Low -- °F
--% Chance of Precip.
Yesterday
High -- | Low -- °F
Precip. -- in
7:10 AM 7:31 PM
Waning Crescent, 24% visible
Pressure 29.63 in
Visibility 10.0 miles
Clouds Few 8500 ft
Scattered Clouds 13000 ft
Scattered Clouds 20000 ft
Heat Index 84 °F
Dew Point 26 °F
Humidity 11%
Rainfall -999.00 in
Snow Depth 0 in , 1 in , 2 in
UV 5 out of 12
Pollen 5.30 out of 12
PM2.5 Good
Flu Activity Not available.
METAR KSLC 182053Z 17013G22KT 10SM FEW085TCU SCT130 SCT200 33/07 A2982 RMK AO2 SLP034 VIRGA DSNT NW CB DSNT NW-N TCU W AND DSNT NE AND SE T03280072 58024 $

More Conditions Fewer Conditions

Pressure 29.63 in
Visibility 10.0 miles
Clouds Few 8500 ft
Scattered Clouds 13000 ft
Scattered Clouds 20000 ft
Heat Index 84 °F
Dew Point 26 °F
Humidity 11%
Rainfall -999.00 in
Snow Depth 0 in , 1 in , 2 in
UV 5 out of 12
Pollen 5.30 out of 12
PM2.5 Good
Flu Activity Not available.
METAR KSLC 182053Z 17013G22KT 10SM FEW085TCU SCT130 SCT200 33/07 A2982 RMK AO2 SLP034 VIRGA DSNT NW CB DSNT NW-N TCU W AND DSNT NE AND SE T03280072 58024 $

More Conditions Fewer Conditions

10-Day Weather Forecast

Almanac

Astronomy

Sep. 18, 2014 Rise Set
Actual Time 7:10 AM MDT 7:31 PM MDT
Civil Twilight 6:43 AM MDT 7:58 PM MDT
Nautical Twilight 6:11 AM MDT 8:30 PM MDT
Astronomical Twilight 5:38 AM MDT 9:03 PM MDT
Moon 2:05 AM MDT 4:25 PM MDT
Length of Visible Light 13h 14m
Length of Day
12h 20m
Tomorrow will be 2m 39s shorter.
Waning Crescent, 24% of the Moon is Illuminated
Today
Waning Crescent
Sep 24
New
Oct 1
First Quarter
Oct 8
Full
Oct 15
Last Quarter

Today's Extremes

State Highs State Lows

Community

WunderPhotos

Upload Photos

1,754,452 photos uploaded!

WunderBlogs® & News

Nearby

Air Quality

  Air Quality AQ Index Pollutant
Yesterday Good
OZONE
Yesterday Good
PM2.5
Current Good
PM2.5
Thursday Good
OZONE
Friday Good
OZONE
Saturday Good
OZONE

Snow Depth

Station Depth Elevation
Dry Fork 0 in 7160 ft
Long Valley Jct 1 in 7360 ft
Lakefork #1 2 in 10100 ft
Gooseberry R.S. 0 in 7920 ft
Temple Fork 0 in 7406 ft

Earthquake Activity

City Distance Mag. Time & Date
No recent earthquake activity has been reported nearby.
Minimum magnitude displayed is 2.5.

Coastal Water Temperatures

Place Temperature
No Stations Reporting

Nearby Weather Stations